createdAt,value
2022-12-23T00:01:27.496Z,5.44
2022-12-23T00:03:59.864Z,5.43
2022-12-23T00:06:28.166Z,5.43
2022-12-23T00:08:58.896Z,5.44
2022-12-23T00:11:28.855Z,5.44
2022-12-23T00:14:21.088Z,5.43
2022-12-23T00:16:51.147Z,5.39
2022-12-23T00:19:19.604Z,5.35
2022-12-23T00:21:48.673Z,5.34
2022-12-23T00:24:16.805Z,5.37
2022-12-23T00:26:44.681Z,5.41
2022-12-23T00:29:12.635Z,5.41
2022-12-23T00:31:40.881Z,5.40
2022-12-23T00:34:10.945Z,5.39
2022-12-23T00:36:39.182Z,5.42
2022-12-23T00:39:27.824Z,5.45
2022-12-23T00:42:14.358Z,5.46
2022-12-23T00:44:42.441Z,5.46
2022-12-23T00:47:30.421Z,5.50
2022-12-23T00:49:58.426Z,5.55
2022-12-23T00:52:27.125Z,5.59
2022-12-23T00:54:55.251Z,5.63
2022-12-23T00:57:23.261Z,5.64
2022-12-23T00:59:51.307Z,5.64
2022-12-23T01:02:37.948Z,5.65
2022-12-23T01:05:36.606Z,5.62
2022-12-23T01:08:10.872Z,5.57
2022-12-23T01:10:40.632Z,5.56
2022-12-23T01:13:08.613Z,5.59
2022-12-23T01:15:36.565Z,5.62
2022-12-23T01:18:04.619Z,5.61
2022-12-23T01:20:32.517Z,5.57
2022-12-23T01:23:01.763Z,5.55
2022-12-23T01:25:30.642Z,5.51
2022-12-23T01:27:58.666Z,5.48
2022-12-23T01:30:26.480Z,5.45
2022-12-23T01:32:54.457Z,5.44
2022-12-23T01:35:22.612Z,5.42
2022-12-23T01:37:50.555Z,5.42
2022-12-23T01:40:18.737Z,5.48
2022-12-23T01:42:47.409Z,5.50
2022-12-23T01:45:18.659Z,5.47
2022-12-23T01:47:49.801Z,5.43
2022-12-23T01:50:36.659Z,5.38
2022-12-23T01:53:13.879Z,5.30
2022-12-23T01:55:50.648Z,5.25
2022-12-23T01:58:23.619Z,5.21
2022-12-23T02:01:10.933Z,5.14
2022-12-23T02:03:45.304Z,5.05
2022-12-23T02:06:41.277Z,4.95
2022-12-23T02:09:25.917Z,4.88
2022-12-23T02:12:15.838Z,4.82
2022-12-23T02:15:14.564Z,4.77
2022-12-23T02:17:42.447Z,4.66
2022-12-23T02:20:38.096Z,4.66
2022-12-23T02:23:36.585Z,4.63
2022-12-23T02:26:22.892Z,4.64
2022-12-23T02:28:53.643Z,4.64
2022-12-23T02:31:59.568Z,4.66
2022-12-23T02:34:46.454Z,4.65
2022-12-23T02:37:48.387Z,4.64
2022-12-23T02:40:31.496Z,4.60
2022-12-23T02:43:03.834Z,4.55
2022-12-23T02:45:38.727Z,4.52
2022-12-23T02:48:22.653Z,4.52
2022-12-23T02:50:53.442Z,4.52
2022-12-23T02:53:35.727Z,4.49
2022-12-23T02:56:08.935Z,4.49
2022-12-23T02:59:15.366Z,4.49
2022-12-23T03:01:45.351Z,4.49
2022-12-23T03:04:14.502Z,4.48
2022-12-23T03:06:46.179Z,4.45
2022-12-23T03:09:32.500Z,4.53
2022-12-23T03:12:48.276Z,4.54
2022-12-23T03:15:43.029Z,4.56
2022-12-23T03:18:17.151Z,4.57
2022-12-23T03:21:08.934Z,4.57
2022-12-23T03:23:43.661Z,4.56
2022-12-23T03:26:17.344Z,4.58
2022-12-23T03:29:03.127Z,4.55
2022-12-23T03:31:32.066Z,4.57
2022-12-23T03:34:11.425Z,4.57
2022-12-23T03:36:48.303Z,4.58
2022-12-23T03:39:22.180Z,4.59
2022-12-23T03:42:02.279Z,4.62
2022-12-23T03:44:36.812Z,4.66
2022-12-23T03:47:07.814Z,4.69
2022-12-23T03:49:37.671Z,4.73
2022-12-23T03:52:30.892Z,4.73
2022-12-23T03:55:04.437Z,4.74
2022-12-23T03:57:44.727Z,4.78
2022-12-23T04:00:14.037Z,4.81
2022-12-23T04:02:48.162Z,4.83
2022-12-23T04:05:19.591Z,4.87
2022-12-23T04:08:17.745Z,4.91
2022-12-23T04:10:46.500Z,4.96
2022-12-23T04:13:14.412Z,4.99
2022-12-23T04:15:42.911Z,5.01
2022-12-23T04:18:12.128Z,5.04
2022-12-23T04:20:40.175Z,5.03
2022-12-23T04:23:08.097Z,5.02
2022-12-23T04:25:36.854Z,5.01
2022-12-23T04:28:05.192Z,4.99
2022-12-23T04:30:34.713Z,5.00
2022-12-23T04:33:03.713Z,5.02
2022-12-23T04:35:31.596Z,5.00
2022-12-23T04:38:00.273Z,5.01
2022-12-23T04:40:28.337Z,5.03
2022-12-23T04:42:56.416Z,5.07
2022-12-23T04:45:24.570Z,5.09
2022-12-23T04:47:54.458Z,5.10
2022-12-23T04:50:22.693Z,5.11
2022-12-23T04:52:50.944Z,5.09
2022-12-23T04:55:18.943Z,5.10
2022-12-23T04:57:46.773Z,5.12
2022-12-23T05:00:15.262Z,5.10
2022-12-23T05:02:43.438Z,5.09
2022-12-23T05:05:11.802Z,5.11
2022-12-23T05:07:39.812Z,5.13
2022-12-23T05:10:08.775Z,5.14
2022-12-23T05:12:36.808Z,5.18
2022-12-23T05:15:05.667Z,5.19
2022-12-23T05:17:33.679Z,5.23
2022-12-23T05:20:01.719Z,5.26
2022-12-23T05:22:29.973Z,5.27
2022-12-23T05:24:57.998Z,5.27
2022-12-23T05:27:25.817Z,5.30
2022-12-23T05:29:53.708Z,5.32
2022-12-23T05:32:21.866Z,5.32
2022-12-23T05:34:49.899Z,5.41
2022-12-23T05:37:17.831Z,5.46
2022-12-23T05:39:45.730Z,5.50
2022-12-23T05:42:17.434Z,5.52
2022-12-23T05:44:45.632Z,5.53
2022-12-23T05:47:13.570Z,5.54
2022-12-23T05:49:41.702Z,5.54
2022-12-23T05:52:09.777Z,5.51
2022-12-23T05:54:37.658Z,5.51
2022-12-23T05:57:05.816Z,5.53
2022-12-23T05:59:33.882Z,5.52
2022-12-23T06:02:02.151Z,5.51
2022-12-23T06:04:30.437Z,5.51
2022-12-23T06:06:58.561Z,5.48
2022-12-23T06:09:26.511Z,5.49
2022-12-23T06:11:54.468Z,5.50
2022-12-23T06:14:28.371Z,5.49
2022-12-23T06:16:56.873Z,5.48
2022-12-23T06:19:25.028Z,5.51
2022-12-23T06:21:53.188Z,5.54
2022-12-23T06:24:21.408Z,5.55
2022-12-23T06:26:54.894Z,5.57
2022-12-23T06:29:25.459Z,5.60
2022-12-23T06:31:53.787Z,5.60
2022-12-23T06:34:21.954Z,5.65
2022-12-23T06:36:50.077Z,5.65
2022-12-23T06:39:18.229Z,5.70
2022-12-23T06:41:46.591Z,5.75
2022-12-23T06:44:14.699Z,5.76
2022-12-23T06:46:42.792Z,5.81
2022-12-23T06:49:13.656Z,5.89
2022-12-23T06:51:42.103Z,5.94
2022-12-23T06:54:12.186Z,5.98
2022-12-23T06:56:40.535Z,6.00
2022-12-23T06:59:08.589Z,6.01
2022-12-23T07:01:36.852Z,6.02
2022-12-23T07:04:05.273Z,6.03
2022-12-23T07:06:33.426Z,6.06
2022-12-23T07:09:01.406Z,6.00
2022-12-23T07:11:30.153Z,6.03
2022-12-23T07:13:59.606Z,5.98
2022-12-23T07:16:27.712Z,5.99
2022-12-23T07:18:55.608Z,6.00
2022-12-23T07:21:29.029Z,6.04
2022-12-23T07:23:58.076Z,6.08
2022-12-23T07:26:26.212Z,6.11
2022-12-23T07:28:55.923Z,6.15
2022-12-23T07:31:24.227Z,6.20
2022-12-23T07:33:52.335Z,6.23
2022-12-23T07:36:20.323Z,6.27
2022-12-23T07:38:51.807Z,6.32
2022-12-23T07:41:19.963Z,6.38
2022-12-23T07:43:49.461Z,6.42
2022-12-23T07:46:17.641Z,6.46
2022-12-23T07:48:46.711Z,6.47
2022-12-23T07:51:14.928Z,6.48
2022-12-23T07:53:50.534Z,6.51
2022-12-23T07:56:19.628Z,6.50
2022-12-23T07:58:52.843Z,6.54
2022-12-23T08:01:22.126Z,6.53
2022-12-23T08:03:50.334Z,6.54
2022-12-23T08:06:18.412Z,6.54
2022-12-23T08:08:47.100Z,6.56
2022-12-23T08:11:15.973Z,6.55
2022-12-23T08:13:45.466Z,6.55
2022-12-23T08:16:13.884Z,6.56
2022-12-23T08:18:43.279Z,6.56
2022-12-23T08:21:15.683Z,6.57
2022-12-23T08:23:44.141Z,6.60
2022-12-23T08:26:13.855Z,6.50
2022-12-23T08:28:43.735Z,6.63
2022-12-23T08:31:20.488Z,6.68
2022-12-23T08:33:50.541Z,6.75
2022-12-23T08:36:23.301Z,6.81
2022-12-23T08:38:53.705Z,6.92
2022-12-23T08:41:28.595Z,7.03
2022-12-23T08:43:57.397Z,7.12
2022-12-23T08:46:26.314Z,7.13
2022-12-23T08:48:54.675Z,7.10
2022-12-23T08:51:25.512Z,7.12
2022-12-23T08:54:01.080Z,7.11
2022-12-23T08:56:33.881Z,7.09
2022-12-23T08:59:02.437Z,7.05
2022-12-23T09:01:32.805Z,7.04
2022-12-23T09:04:05.550Z,7.02
2022-12-23T09:06:38.031Z,7.06
2022-12-23T09:09:07.328Z,7.16
2022-12-23T09:11:35.497Z,7.30
2022-12-23T09:14:03.873Z,7.36
2022-12-23T09:16:32.291Z,7.39
2022-12-23T09:19:00.264Z,7.38
2022-12-23T09:21:28.491Z,7.31
2022-12-23T09:23:59.235Z,7.25
2022-12-23T09:26:28.761Z,7.17
2022-12-23T09:28:59.692Z,7.12
2022-12-23T09:31:35.879Z,7.11
2022-12-23T09:34:05.175Z,7.08
2022-12-23T09:36:33.305Z,7.09
2022-12-23T09:39:01.236Z,7.10
2022-12-23T09:41:38.565Z,7.14
2022-12-23T09:44:25.517Z,7.23
2022-12-23T09:47:05.975Z,7.42
2022-12-23T09:49:34.808Z,7.73
2022-12-23T09:52:06.790Z,8.32
2022-12-23T09:54:47.616Z,8.87
2022-12-23T09:57:32.995Z,9.28
2022-12-23T10:00:04.602Z,9.46
2022-12-23T10:02:36.208Z,9.45
2022-12-23T10:05:22.540Z,9.58
2022-12-23T10:08:09.560Z,9.79
2022-12-23T10:10:43.440Z,9.84
2022-12-23T10:13:26.169Z,10.07
2022-12-23T10:15:58.462Z,10.44
2022-12-23T10:18:35.356Z,10.60
2022-12-23T10:21:07.883Z,10.59
2022-12-23T10:23:44.446Z,10.39
2022-12-23T10:26:55.495Z,10.11
2022-12-23T10:29:24.953Z,9.78
2022-12-23T10:32:02.725Z,9.53
2022-12-23T10:34:40.279Z,9.28
2022-12-23T10:37:21.759Z,9.12
2022-12-23T10:39:52.883Z,8.96
2022-12-23T10:42:44.224Z,8.85
2022-12-23T10:45:35.741Z,8.75
2022-12-23T10:48:22.521Z,8.58
2022-12-23T10:51:15.102Z,8.49
2022-12-23T10:53:57.179Z,8.40
2022-12-23T10:56:25.697Z,8.33
2022-12-23T10:58:59.460Z,8.26
2022-12-23T11:01:31.052Z,8.21
2022-12-23T11:04:17.094Z,8.20
2022-12-23T11:07:10.557Z,8.17
2022-12-23T11:09:43.838Z,8.18
2022-12-23T11:12:12.841Z,8.18
2022-12-23T11:14:50.044Z,8.16
2022-12-23T11:17:24.883Z,8.15
2022-12-23T11:20:11.374Z,8.15
2022-12-23T11:22:53.383Z,8.15
2022-12-23T11:25:38.514Z,8.14
2022-12-23T11:28:15.661Z,8.19
2022-12-23T11:31:09.777Z,8.28
2022-12-23T11:33:40.107Z,8.34
2022-12-23T11:36:14.681Z,8.35
2022-12-23T11:38:51.874Z,8.36
2022-12-23T11:41:25.967Z,8.29
2022-12-23T11:44:01.704Z,8.27
2022-12-23T11:46:32.907Z,8.21
2022-12-23T11:49:18.574Z,8.18
2022-12-23T11:52:14.016Z,8.13
2022-12-23T11:54:54.363Z,8.06
2022-12-23T11:57:28.715Z,8.01
2022-12-23T11:59:58.343Z,8.02
2022-12-23T12:02:58.883Z,8.00
2022-12-23T12:05:35.530Z,8.02
2022-12-23T12:08:15.913Z,8.04
2022-12-23T12:10:44.397Z,8.03
2022-12-23T12:13:44.861Z,8.05
2022-12-23T12:16:31.554Z,8.02
2022-12-23T12:19:15.204Z,8.03
2022-12-23T12:21:44.919Z,8.09
2022-12-23T12:24:22.939Z,8.14
2022-12-23T12:27:02.778Z,8.15
2022-12-23T12:29:56.170Z,8.10
2022-12-23T12:32:50.797Z,8.12
2022-12-23T12:35:27.343Z,8.14
2022-12-23T12:38:12.404Z,8.15
2022-12-23T12:40:47.770Z,8.13
2022-12-23T12:43:19.104Z,8.14
2022-12-23T12:45:59.697Z,8.15
2022-12-23T12:49:04.798Z,8.21
2022-12-23T12:51:40.891Z,8.22
2022-12-23T12:54:32.132Z,8.16
2022-12-23T12:57:02.552Z,8.15
2022-12-23T12:59:38.137Z,8.15
2022-12-23T13:02:25.380Z,8.17
2022-12-23T13:05:16.149Z,8.13
2022-12-23T13:07:45.225Z,8.07
2022-12-23T13:10:20.685Z,8.03
2022-12-23T13:13:01.884Z,7.96
2022-12-23T13:15:44.667Z,7.93
2022-12-23T13:18:34.628Z,7.92
2022-12-23T13:21:23.363Z,7.91
2022-12-23T13:24:15.532Z,7.90
2022-12-23T13:27:07.642Z,7.88
2022-12-23T13:29:43.531Z,7.82
2022-12-23T13:32:23.071Z,7.83
2022-12-23T13:35:09.535Z,7.88
2022-12-23T13:38:15.202Z,7.85
2022-12-23T13:41:18.836Z,7.81
2022-12-23T13:43:55.830Z,7.81
2022-12-23T13:47:14.519Z,7.78
2022-12-23T13:49:53.187Z,7.76
2022-12-23T13:52:40.313Z,7.77
2022-12-23T13:55:21.702Z,7.76
2022-12-23T13:57:59.738Z,7.73
2022-12-23T14:00:30.993Z,7.73
2022-12-23T14:03:02.189Z,7.73
2022-12-23T14:05:39.678Z,7.69
2022-12-23T14:08:20.041Z,7.60
2022-12-23T14:11:13.017Z,7.55
2022-12-23T14:13:43.861Z,7.49
2022-12-23T14:16:34.882Z,7.50
2022-12-23T14:19:37.124Z,7.55
2022-12-23T14:22:05.374Z,7.55
2022-12-23T14:24:45.771Z,7.54
2022-12-23T14:27:21.871Z,7.52
2022-12-23T14:30:10.118Z,7.48
2022-12-23T14:32:47.161Z,7.44
2022-12-23T14:35:35.410Z,7.38
2022-12-23T14:38:08.221Z,7.33
2022-12-23T14:40:39.462Z,7.30
2022-12-23T14:43:26.850Z,7.29
2022-12-23T14:46:00.665Z,7.30
2022-12-23T14:48:47.968Z,7.29
2022-12-23T14:51:23.438Z,7.29
2022-12-23T14:53:52.251Z,7.30
2022-12-23T14:56:31.811Z,7.35
2022-12-23T14:59:08.422Z,7.39
2022-12-23T15:01:39.552Z,7.38
2022-12-23T15:04:12.336Z,7.32
2022-12-23T15:06:47.275Z,7.22
2022-12-23T15:09:21.085Z,7.13
2022-12-23T15:11:49.837Z,7.07
2022-12-23T15:14:43.303Z,7.03
2022-12-23T15:17:28.541Z,7.02
2022-12-23T15:20:24.338Z,6.99
2022-12-23T15:22:52.807Z,6.99
2022-12-23T15:25:24.872Z,6.99
2022-12-23T15:28:01.294Z,7.02
2022-12-23T15:30:32.628Z,7.03
2022-12-23T15:33:03.288Z,7.07
2022-12-23T15:35:34.762Z,7.06
2022-12-23T15:38:03.295Z,7.06
2022-12-23T15:40:36.885Z,7.06
2022-12-23T15:43:17.916Z,7.02
2022-12-23T15:45:46.277Z,6.96
2022-12-23T15:48:27.538Z,6.94
2022-12-23T15:50:58.087Z,6.94
2022-12-23T15:53:30.221Z,6.93
2022-12-23T15:56:00.433Z,6.93
2022-12-23T15:58:29.122Z,6.91
2022-12-23T16:01:00.683Z,6.90
2022-12-23T16:03:40.656Z,6.89
2022-12-23T16:06:39.231Z,6.87
2022-12-23T16:09:26.043Z,6.82
2022-12-23T16:11:54.089Z,6.78
2022-12-23T16:14:31.253Z,6.75
2022-12-23T16:17:19.627Z,6.72
2022-12-23T16:19:50.433Z,6.72
2022-12-23T16:22:35.754Z,6.69
2022-12-23T16:25:09.828Z,6.66
2022-12-23T16:27:40.457Z,6.63
2022-12-23T16:30:20.777Z,6.60
2022-12-23T16:32:50.893Z,6.65
2022-12-23T16:35:30.593Z,6.66
2022-12-23T16:38:24.141Z,6.62
2022-12-23T16:41:00.121Z,6.60
2022-12-23T16:43:38.070Z,6.62
2022-12-23T16:46:09.037Z,6.63
2022-12-23T16:48:51.103Z,6.63
2022-12-23T16:51:20.358Z,6.64
2022-12-23T16:53:50.221Z,6.65
2022-12-23T16:56:20.599Z,6.62
2022-12-23T16:58:48.979Z,6.58
2022-12-23T17:01:26.172Z,6.60
2022-12-23T17:03:56.078Z,6.61
2022-12-23T17:06:27.098Z,6.60
2022-12-23T17:08:58.602Z,6.62
2022-12-23T17:11:47.114Z,6.61
2022-12-23T17:14:17.087Z,6.60
2022-12-23T17:16:46.182Z,6.62
2022-12-23T17:19:14.367Z,6.62
2022-12-23T17:21:44.707Z,6.62
2022-12-23T17:24:18.831Z,6.61
2022-12-23T17:26:46.826Z,6.61
2022-12-23T17:29:14.722Z,6.60
2022-12-23T17:31:43.429Z,6.55
2022-12-23T17:34:17.365Z,6.53
2022-12-23T17:36:49.962Z,6.52
2022-12-23T17:39:22.318Z,6.54
2022-12-23T17:41:50.614Z,6.57
2022-12-23T17:44:19.115Z,6.61
2022-12-23T17:46:47.425Z,6.63
2022-12-23T17:49:15.591Z,6.64
2022-12-23T17:51:43.901Z,6.68
2022-12-23T17:54:25.316Z,6.71
2022-12-23T17:56:53.387Z,6.74
2022-12-23T17:59:21.826Z,6.74
2022-12-23T18:01:50.237Z,6.75
2022-12-23T18:04:18.886Z,6.76
2022-12-23T18:06:47.008Z,6.77
2022-12-23T18:09:15.518Z,6.76
2022-12-23T18:11:45.634Z,6.73
2022-12-23T18:14:18.538Z,6.72
2022-12-23T18:16:46.843Z,6.73
2022-12-23T18:19:20.599Z,6.74
2022-12-23T18:21:49.229Z,6.69
2022-12-23T18:24:18.412Z,6.73
2022-12-23T18:26:47.391Z,6.71
2022-12-23T18:29:15.430Z,6.70
2022-12-23T18:31:51.528Z,6.69
2022-12-23T18:34:20.525Z,6.68
2022-12-23T18:36:49.137Z,6.67
2022-12-23T18:39:18.024Z,6.69
2022-12-23T18:41:46.165Z,6.69
2022-12-23T18:44:21.741Z,6.68
2022-12-23T18:46:50.627Z,6.67
2022-12-23T18:49:18.782Z,6.65
2022-12-23T18:51:47.365Z,6.68
2022-12-23T18:54:17.191Z,6.70
2022-12-23T18:56:45.333Z,6.73
2022-12-23T18:59:18.564Z,6.74
2022-12-23T19:01:48.269Z,6.76
2022-12-23T19:04:16.313Z,6.77
2022-12-23T19:06:45.154Z,6.77
2022-12-23T19:09:22.326Z,6.76
2022-12-23T19:11:52.429Z,6.80
2022-12-23T19:14:20.679Z,6.81
2022-12-23T19:16:51.932Z,6.85
2022-12-23T19:19:22.057Z,6.86
2022-12-23T19:21:50.030Z,6.87
2022-12-23T19:24:18.275Z,6.88
2022-12-23T19:26:46.276Z,6.86
2022-12-23T19:29:14.205Z,6.89
2022-12-23T19:31:42.004Z,6.91
2022-12-23T19:34:15.067Z,6.94
2022-12-23T19:36:44.190Z,6.94
2022-12-23T19:39:16.587Z,6.95
2022-12-23T19:41:45.410Z,6.97
2022-12-23T19:44:14.176Z,6.97
2022-12-23T19:46:42.467Z,6.96
2022-12-23T19:49:17.429Z,6.97
2022-12-23T19:51:49.036Z,6.99
2022-12-23T19:54:18.624Z,6.97
2022-12-23T19:56:49.658Z,7.00
2022-12-23T19:59:17.625Z,7.02
2022-12-23T20:01:46.049Z,7.04
2022-12-23T20:04:14.128Z,7.06
2022-12-23T20:06:42.685Z,7.08
2022-12-23T20:09:13.157Z,7.09
2022-12-23T20:11:44.286Z,7.09
2022-12-23T20:14:14.248Z,7.10
2022-12-23T20:16:42.462Z,7.10
2022-12-23T20:19:10.903Z,7.08
2022-12-23T20:21:38.717Z,7.08
2022-12-23T20:24:07.311Z,7.09
2022-12-23T20:26:35.437Z,7.08
2022-12-23T20:29:03.384Z,7.08
2022-12-23T20:31:33.907Z,7.07
2022-12-23T20:34:02.619Z,7.08
2022-12-23T20:36:33.708Z,7.10
2022-12-23T20:39:03.592Z,7.11
2022-12-23T20:41:32.411Z,7.13
2022-12-23T20:46:48.976Z,7.14
2022-12-23T20:49:17.157Z,7.14
2022-12-23T20:51:44.873Z,7.14
2022-12-23T20:54:12.895Z,7.17
2022-12-23T20:56:41.357Z,7.19
2022-12-23T20:59:09.241Z,7.18
2022-12-23T21:01:39.240Z,7.20
2022-12-23T21:04:13.239Z,7.22
2022-12-23T21:06:41.854Z,7.24
2022-12-23T21:09:12.382Z,7.27
2022-12-23T21:11:43.444Z,7.27
2022-12-23T21:14:12.184Z,7.29
2022-12-23T21:16:40.432Z,7.32
2022-12-23T21:19:13.199Z,7.34
2022-12-23T21:21:41.060Z,7.35
2022-12-23T21:24:10.246Z,7.36
2022-12-23T21:26:38.935Z,7.38
2022-12-23T21:29:09.480Z,7.39
2022-12-23T21:31:39.747Z,7.39
2022-12-23T21:34:08.349Z,7.38
2022-12-23T21:36:38.862Z,7.36
2022-12-23T21:39:08.794Z,7.36
2022-12-23T21:41:39.503Z,7.36
2022-12-23T21:44:08.390Z,7.38
2022-12-23T21:46:36.215Z,7.41
2022-12-23T21:49:04.238Z,7.41
2022-12-23T21:51:39.630Z,7.43
2022-12-23T21:54:10.417Z,7.43
2022-12-23T21:56:39.045Z,7.42
2022-12-23T21:59:10.194Z,7.42
2022-12-23T22:01:38.830Z,7.40
2022-12-23T22:04:06.891Z,7.45
2022-12-23T22:06:39.426Z,7.48
2022-12-23T22:09:08.138Z,7.51
2022-12-23T22:11:37.319Z,7.56
2022-12-23T22:14:07.894Z,7.61
2022-12-23T22:16:36.752Z,7.65
2022-12-23T22:19:06.499Z,7.67
2022-12-23T22:21:36.096Z,7.70
2022-12-23T22:24:07.020Z,7.68
2022-12-23T22:26:35.923Z,7.67
2022-12-23T22:29:06.622Z,7.67
2022-12-23T22:31:40.072Z,7.70
2022-12-23T22:34:12.017Z,7.72
2022-12-23T22:36:40.082Z,7.73
2022-12-23T22:39:08.311Z,7.73
2022-12-23T22:41:36.554Z,7.73
2022-12-23T22:44:04.885Z,7.72
2022-12-23T22:46:33.367Z,7.75
2022-12-23T22:49:01.401Z,7.76
2022-12-23T22:51:31.181Z,7.78
2022-12-23T22:54:01.876Z,7.83
2022-12-23T22:56:30.068Z,7.83
2022-12-23T22:58:58.625Z,7.84
2022-12-23T23:01:28.721Z,7.86
2022-12-23T23:03:57.821Z,7.87
2022-12-23T23:06:31.346Z,7.86
2022-12-23T23:08:59.902Z,7.84
2022-12-23T23:11:28.466Z,7.82
2022-12-23T23:13:57.849Z,7.77
2022-12-23T23:16:26.519Z,7.70
2022-12-23T23:18:54.719Z,7.60
2022-12-23T23:21:23.213Z,7.55
2022-12-23T23:23:51.283Z,7.47
2022-12-23T23:26:20.438Z,7.38
2022-12-23T23:28:49.008Z,7.37
2022-12-23T23:31:41.471Z,7.33
2022-12-23T23:34:05.550Z,7.31
2022-12-23T23:36:33.693Z,7.33
2022-12-23T23:39:01.752Z,7.35
2022-12-23T23:41:29.963Z,7.38
2022-12-23T23:43:57.885Z,7.37
2022-12-23T23:46:26.164Z,7.44
2022-12-23T23:48:54.264Z,7.48
2022-12-23T23:51:22.282Z,7.50
2022-12-23T23:53:50.446Z,7.48
2022-12-23T23:56:24.844Z,7.45
2022-12-23T23:58:53.694Z,7.42
